Yahk, Canada
Current Conditions -  °F | °C
As of 12:55 PM on Sunday 21 Dec 2014 (Local Time) from K65S Reporting Station
Overcast Overcast  
Wind Chill: 43°   Ceiling: 6000
Heat Index: 46°   Visibility: 10mi
Dew Point: 32°   Wind: 7mph
Humidity: 57%   Direction: 210°SSW
Pressure: 29.68"   Gusts: NA
Location:  49.08°N, 116.1°W
Report Text: K65S 212055Z AUTO 21006KT 10SM OVC060 08/00 A2968 RMK AO2
Loading
Personal Weather Stations






























Interactive Weather Map New forecast layout! Learn more

10-Day Weather Forecast

Advertisements
Track Severe Weather on mobile